createdAt,value
2023-04-01T00:00:35.417Z,8.17
2023-04-01T00:05:39.668Z,8.18
2023-04-01T00:10:42.539Z,8.23
2023-04-01T00:15:45.882Z,8.06
2023-04-01T00:20:51.775Z,8.04
2023-04-01T00:25:54.546Z,8.21
2023-04-01T00:30:57.321Z,8.12
2023-04-01T00:36:10.783Z,8.15
2023-04-01T00:41:16.519Z,7.92
2023-04-01T00:46:19.853Z,8.08
2023-04-01T00:51:27.999Z,8.09
2023-04-01T00:56:34.867Z,8.10
2023-04-01T01:01:38.028Z,8.04
2023-04-01T01:06:53.242Z,8.04
2023-04-01T01:12:03.835Z,8.07
2023-04-01T01:17:16.045Z,8.10
2023-04-01T01:22:36.790Z,8.35
2023-04-01T01:27:42.658Z,8.29
2023-04-01T01:33:13.966Z,8.35
2023-04-01T01:38:19.911Z,8.27
2023-04-01T01:43:34.443Z,8.24
2023-04-01T01:48:38.216Z,8.12
2023-04-01T01:53:42.360Z,8.32
2023-04-01T01:58:49.546Z,8.24
2023-04-01T02:03:57.480Z,8.31
2023-04-01T02:09:04.739Z,8.31
2023-04-01T02:14:12.671Z,8.21
2023-04-01T02:19:23.399Z,8.13
2023-04-01T02:24:32.559Z,8.25
2023-04-01T02:29:35.493Z,8.10
2023-04-01T02:34:38.918Z,8.00
2023-04-01T02:39:43.660Z,7.97
2023-04-01T02:44:46.732Z,8.04
2023-04-01T02:49:50.340Z,7.94
2023-04-01T02:54:54.930Z,8.11
2023-04-01T02:59:57.827Z,7.90
2023-04-01T03:05:00.606Z,8.03
2023-04-01T03:10:05.063Z,8.08
2023-04-01T03:15:10.600Z,8.08
2023-04-01T03:20:15.970Z,8.16
2023-04-01T03:25:20.480Z,8.21
2023-04-01T03:30:23.684Z,8.16
2023-04-01T03:35:27.529Z,8.25
2023-04-01T03:40:31.708Z,8.15
2023-04-01T03:45:34.804Z,8.02
2023-04-01T03:50:37.840Z,8.19
2023-04-01T03:55:42.020Z,8.06
2023-04-01T04:00:44.852Z,8.05
2023-04-01T04:05:49.459Z,8.16
2023-04-01T04:10:58.246Z,8.21
2023-04-01T04:16:01.644Z,8.14
2023-04-01T04:21:06.128Z,8.18
2023-04-01T04:26:12.400Z,8.18
2023-04-01T04:31:20.907Z,8.24
2023-04-01T04:36:24.509Z,8.17
2023-04-01T04:41:29.967Z,8.15
2023-04-01T04:46:32.929Z,8.07
2023-04-01T04:51:47.689Z,8.04
2023-04-01T04:56:54.835Z,8.08
2023-04-01T05:01:59.266Z,8.00
2023-04-01T05:07:02.035Z,7.98
2023-04-01T05:12:07.017Z,7.89
2023-04-01T05:17:41.931Z,7.83
2023-04-01T05:22:46.308Z,7.80
2023-04-01T05:27:50.552Z,7.84
2023-04-01T05:32:53.470Z,7.69
2023-04-01T05:37:56.564Z,7.80
2023-04-01T05:43:01.405Z,7.77
2023-04-01T05:48:04.547Z,7.75
2023-04-01T05:53:14.242Z,7.74
2023-04-01T05:58:20.782Z,7.66
2023-04-01T06:03:24.532Z,7.75
2023-04-01T06:08:27.740Z,7.85
2023-04-01T06:13:50.057Z,7.88
2023-04-01T06:19:02.845Z,7.90
2023-04-01T06:24:24.314Z,7.94
2023-04-01T06:29:45.363Z,7.98
2023-04-01T06:35:14.531Z,8.16
2023-04-01T06:40:53.558Z,8.17
2023-04-01T06:46:06.781Z,8.32
2023-04-01T06:51:37.256Z,8.67
2023-04-01T06:57:04.504Z,8.92
2023-04-01T07:02:24.807Z,9.01
2023-04-01T07:07:35.601Z,8.52
2023-04-01T07:12:48.231Z,8.63
2023-04-01T07:18:32.431Z,8.51
2023-04-01T07:23:42.986Z,8.47
2023-04-01T07:28:59.336Z,8.50
2023-04-01T07:34:25.194Z,8.52
2023-04-01T07:39:37.262Z,8.51
2023-04-01T07:45:00.798Z,8.37
2023-04-01T07:50:15.713Z,8.39
2023-04-01T07:55:24.909Z,8.51
2023-04-01T08:00:35.438Z,8.55
2023-04-01T08:05:57.814Z,8.39
2023-04-01T08:11:11.884Z,8.44
2023-04-01T08:16:40.618Z,8.52
2023-04-01T08:21:51.758Z,8.59
2023-04-01T08:26:59.274Z,8.72
2023-04-01T08:32:08.694Z,8.72
2023-04-01T08:37:19.521Z,8.98
2023-04-01T08:42:53.527Z,9.01
2023-04-01T08:48:19.363Z,9.25
2023-04-01T08:53:44.012Z,9.27
2023-04-01T08:59:08.370Z,9.55
2023-04-01T09:04:33.802Z,9.49
2023-04-01T09:10:07.883Z,9.79
2023-04-01T09:15:54.597Z,9.98
2023-04-01T09:21:22.492Z,10.01
2023-04-01T09:26:51.349Z,9.81
2023-04-01T09:32:18.151Z,10.00
2023-04-01T09:37:36.534Z,10.32
2023-04-01T09:42:57.796Z,10.67
2023-04-01T09:48:18.166Z,10.97
2023-04-01T09:53:36.865Z,11.35
2023-04-01T09:59:11.744Z,11.17
2023-04-01T10:05:00.649Z,10.93
2023-04-01T10:10:36.422Z,10.95
2023-04-01T10:16:06.141Z,11.18
2023-04-01T10:21:38.894Z,11.55
2023-04-01T10:27:04.309Z,11.46
2023-04-01T10:32:47.722Z,11.02
2023-04-01T10:38:28.465Z,10.39
2023-04-01T10:44:04.667Z,10.05
2023-04-01T10:49:46.454Z,10.49
2023-04-01T10:55:00.560Z,11.02
2023-04-01T11:01:09.780Z,11.28
2023-04-01T11:07:22.904Z,11.56
2023-04-01T11:13:02.280Z,11.45
2023-04-01T11:18:59.727Z,11.90
2023-04-01T11:24:26.836Z,11.56
2023-04-01T11:30:09.073Z,10.41
2023-04-01T11:35:42.553Z,10.23
2023-04-01T11:40:53.529Z,10.17
2023-04-01T11:46:25.741Z,10.50
2023-04-01T11:51:41.684Z,11.28
2023-04-01T11:57:02.283Z,11.37
2023-04-01T12:02:14.843Z,12.05
2023-04-01T12:07:24.820Z,11.99
2023-04-01T12:12:34.811Z,12.01
2023-04-01T12:17:46.453Z,12.00
2023-04-01T12:22:55.594Z,12.53
2023-04-01T12:28:16.551Z,12.29
2023-04-01T12:33:34.135Z,12.05
2023-04-01T12:38:46.673Z,11.62
2023-04-01T12:44:15.141Z,12.43
2023-04-01T12:49:36.372Z,12.60
2023-04-01T12:55:23.179Z,12.98
2023-04-01T13:00:44.522Z,12.79
2023-04-01T13:06:20.936Z,12.82
2023-04-01T13:11:41.425Z,12.97
2023-04-01T13:16:54.373Z,12.65
2023-04-01T13:22:04.428Z,12.89
2023-04-01T13:27:16.739Z,13.14
2023-04-01T13:32:43.242Z,13.76
2023-04-01T13:37:59.612Z,13.73
2023-04-01T13:43:06.110Z,13.88
2023-04-01T13:48:32.912Z,14.02
2023-04-01T13:54:05.921Z,13.80
2023-04-01T13:59:38.207Z,13.80
2023-04-01T14:04:51.924Z,12.98
2023-04-01T14:10:08.031Z,13.08
2023-04-01T14:15:29.489Z,13.15
2023-04-01T14:20:42.403Z,12.66
2023-04-01T14:26:09.670Z,12.59
2023-04-01T14:31:36.573Z,12.23
2023-04-01T14:37:03.359Z,12.39
2023-04-01T14:42:25.973Z,12.24
2023-04-01T14:47:52.759Z,12.16
2023-04-01T14:53:01.721Z,12.04
2023-04-01T14:58:12.934Z,11.90
2023-04-01T15:03:21.120Z,11.87
2023-04-01T15:08:29.583Z,11.84
2023-04-01T15:13:53.261Z,11.94
2023-04-01T15:19:07.387Z,11.79
2023-04-01T15:24:22.508Z,12.00
2023-04-01T15:29:41.709Z,11.77
2023-04-01T15:34:51.978Z,11.58
2023-04-01T15:40:04.276Z,11.73
2023-04-01T15:45:18.715Z,11.19
2023-04-01T15:50:56.478Z,10.92
2023-04-01T15:56:12.900Z,10.80
2023-04-01T16:01:26.338Z,10.74
2023-04-01T16:06:54.631Z,10.80
2023-04-01T16:12:07.111Z,10.92
2023-04-01T16:17:35.076Z,10.96
2023-04-01T16:22:41.934Z,11.02
2023-04-01T16:27:54.826Z,10.93
2023-04-01T16:33:05.928Z,10.91
2023-04-01T16:38:17.739Z,10.82
2023-04-01T16:43:30.355Z,10.65
2023-04-01T16:48:51.812Z,10.52
2023-04-01T16:54:07.687Z,10.57
2023-04-01T16:59:23.239Z,10.41
2023-04-01T17:04:35.341Z,9.73
2023-04-01T17:09:51.985Z,9.59
2023-04-01T17:15:05.834Z,9.48
2023-04-01T17:20:36.936Z,9.08
2023-04-01T17:25:59.981Z,9.03
2023-04-01T17:31:12.788Z,8.79
2023-04-01T17:36:27.080Z,8.68
2023-04-01T17:41:38.620Z,8.76
2023-04-01T17:47:02.205Z,8.59
2023-04-01T17:52:17.582Z,8.52
2023-04-01T17:57:41.957Z,8.43
2023-04-01T18:02:58.357Z,8.27
2023-04-01T18:08:14.519Z,8.29
2023-04-01T18:13:29.081Z,8.34
2023-04-01T18:18:52.120Z,8.30
2023-04-01T18:24:02.581Z,7.90
2023-04-01T18:29:18.946Z,7.97
2023-04-01T18:34:42.033Z,7.61
2023-04-01T18:39:50.940Z,7.71
2023-04-01T18:44:58.395Z,7.70
2023-04-01T18:50:15.931Z,7.41
2023-04-01T18:55:32.539Z,7.44
2023-04-01T19:00:41.505Z,7.37
2023-04-01T19:05:49.272Z,7.32
2023-04-01T19:11:04.242Z,7.24
2023-04-01T19:16:16.246Z,7.06
2023-04-01T19:21:23.436Z,7.22
2023-04-01T19:26:31.951Z,7.09
2023-04-01T19:31:50.282Z,7.08
2023-04-01T19:36:58.659Z,7.22
2023-04-01T19:42:13.705Z,7.00
2023-04-01T19:47:22.874Z,6.84
2023-04-01T19:52:33.719Z,6.82
2023-04-01T19:57:44.014Z,6.78
2023-04-01T20:02:58.829Z,6.72
2023-04-01T20:08:13.551Z,6.50
2023-04-01T20:13:27.408Z,6.49
2023-04-01T20:18:40.268Z,6.53
2023-04-01T20:23:49.606Z,6.73
2023-04-01T20:29:12.069Z,6.62
2023-04-01T20:34:32.150Z,6.52
2023-04-01T20:40:04.716Z,6.38
2023-04-01T20:45:24.606Z,6.18
2023-04-01T20:50:31.685Z,6.26
2023-04-01T20:56:21.602Z,6.27
2023-04-01T21:01:37.525Z,6.07
2023-04-01T21:06:54.643Z,5.75
2023-04-01T21:12:11.854Z,5.79
2023-04-01T21:17:24.680Z,5.94
2023-04-01T21:23:03.241Z,5.89
2023-04-01T21:28:22.038Z,5.70
2023-04-01T21:33:39.587Z,5.50
2023-04-01T21:38:54.918Z,5.62
2023-04-01T21:44:34.838Z,5.52
2023-04-01T21:50:05.239Z,5.31
2023-04-01T21:56:01.035Z,5.47
2023-04-01T22:01:23.856Z,5.43
2023-04-01T22:06:35.686Z,5.10
2023-04-01T22:11:50.406Z,5.07
2023-04-01T22:16:58.952Z,4.89
2023-04-01T22:22:10.392Z,4.96
2023-04-01T22:27:20.558Z,4.72
2023-04-01T22:32:30.395Z,4.67
2023-04-01T22:37:39.412Z,4.77
2023-04-01T22:42:45.545Z,5.06
2023-04-01T22:48:02.312Z,4.89
2023-04-01T22:53:16.124Z,4.97
2023-04-01T22:58:23.742Z,4.84
2023-04-01T23:03:32.290Z,5.00
2023-04-01T23:08:57.748Z,4.81
2023-04-01T23:14:19.430Z,4.76
2023-04-01T23:19:28.926Z,4.74
2023-04-01T23:24:37.320Z,4.55
2023-04-01T23:29:43.599Z,4.34
2023-04-01T23:34:51.452Z,4.17
2023-04-01T23:39:56.188Z,4.07
2023-04-01T23:45:01.523Z,4.18
2023-04-01T23:50:12.825Z,4.04
2023-04-01T23:55:19.939Z,4.21
